S C — FGF7634 — position and weather

sailwx.info

Track history (hours):
 
Tides and Currents Weather Stations Pressure Air Temp Water Temp Dewpoint Dewpoint Depression Visibility Wind Speed Wind Dir Waves Ship Positions

S C

Last reported at 2016-Sep-25 04:33 UTC. Time now 2016-Sep-26 06:59 UTC.
Position N 49°29' E 000°07'.

; draft 1 m.

Type: Pilot. MMSI: 227001820.

Date/timePositionNaut miles runAvg speedWind from/ knotsBaromVisibWave heightAir tempDewpointWater temp
2016-Sep-25 04:33N 49°29' E 000°07'0 0.0
2016-Sep-25 00:33N 49°29' E 000°07'0 0.0
2016-Sep-24 22:33N 49°29' E 000°07'0 0.0
2016-Sep-24 21:33N 49°29' E 000°07'0 0.0
2016-Sep-24 19:33N 49°29' E 000°07'1 0.8
2016-Sep-24 18:33N 49°29' E 000°05'1 0.5
2016-Sep-24 17:34N 49°29' E 000°06'0 0.4
2016-Sep-24 16:33N 49°29' E 000°07'0 0.0
2016-Sep-24 14:34N 49°29' E 000°07'0 0.0
2016-Sep-24 12:33N 49°29' E 000°07'0 0.0
2016-Sep-24 10:34N 49°29' E 000°07'2 2.1
2016-Sep-24 09:33N 49°30' E 000°04'2 0.3
2016-Sep-24 03:33N 49°29' E 000°07'0 0.0
2016-Sep-24 02:33N 49°29' E 000°07'10 9.9
2016-Sep-24 01:34N 49°32' W 000°08'10 9.9
2016-Sep-24 00:33N 49°29' E 000°07'0 0.0
2016-Sep-23 19:33N 49°29' E 000°07'8 4.1
2016-Sep-23 17:33N 49°31' W 000°05'8 8.1
2016-Sep-23 16:33N 49°29' E 000°07'0 0.0
2016-Sep-23 15:33N 49°29' E 000°07'0 0.1
2016-Sep-23 13:33N 49°29' E 000°06'8 2.0
2016-Sep-23 09:33N 49°31' W 000°05'8 2.8
2016-Sep-23 06:33N 49°29' E 000°07'0 0.0
2016-Sep-23 04:33N 49°29' E 000°07'0 0.0
2016-Sep-23 03:33N 49°29' E 000°07'1 1.1
2016-Sep-23 02:33N 49°29' E 000°05'9 8.9
2016-Sep-23 01:34N 49°32' W 000°08'10 9.9
2016-Sep-23 00:33N 49°29' E 000°07'0 0.0
2016-Sep-22 23:33N 49°29' E 000°07'0 0.0
2016-Sep-22 20:33N 49°29' E 000°07'3 0.3
2016-Sep-22 12:33N 49°30' E 000°03'3 0.3
2016-Sep-22 04:33N 49°29' E 000°07'0 0.3
2016-Sep-22 03:33N 49°29' E 000°06'0 0.1
2016-Sep-22 00:33N 49°29' E 000°07'0 0.0
2016-Sep-21 23:33N 49°29' E 000°07'0 0.0
2016-Sep-21 22:33N 49°29' E 000°07'0 0.0
2016-Sep-21 19:33N 49°29' E 000°07'7 2.5
2016-Sep-21 16:33N 49°31' W 000°04'7 1.1
2016-Sep-21 09:34N 49°29' E 000°07'0 0.0
2016-Sep-21 08:33N 49°29' E 000°07'22 7.3
2016-Sep-21 05:33N 49°45' W 000°16'2211.0
2016-Sep-21 03:34N 49°29' E 000°07'0 0.0
2016-Sep-21 02:33N 49°29' E 000°07'0 0.0
2016-Sep-20 17:34N 49°29' E 000°07'3 0.9
2016-Sep-20 14:33N 49°30' E 000°02'4 4.3
2016-Sep-20 13:33N 49°31' W 000°04'7 2.4
2016-Sep-20 10:33N 49°29' E 000°07'1 0.4
2016-Sep-20 08:34N 49°29' E 000°06'1 0.8
2016-Sep-20 07:33N 49°29' E 000°07'0 0.0
2016-Sep-20 06:33N 49°29' E 000°07'0 0.1
2016-Sep-20 02:33N 49°29' E 000°06'0 0.1
2016-Sep-19 23:33N 49°29' E 000°07'0 0.1
2016-Sep-19 19:34N 49°29' E 000°06'0 0.5
2016-Sep-19 18:34N 49°29' E 000°07'0 0.0
2016-Sep-19 16:33N 49°29' E 000°07'4 1.8
2016-Sep-19 14:33N 49°30' E 000°01'4 3.6
2016-Sep-19 13:33N 49°29' E 000°07'2 2.1
2016-Sep-19 12:34N 49°29' E 000°04'2 2.1
2016-Sep-19 11:34N 49°29' E 000°07'0 0.0
2016-Sep-19 09:33N 49°29' E 000°07'8 4.1
2016-Sep-19 07:33N 49°31' W 000°06'8 8.0
2016-Sep-19 06:33N 49°29' E 000°07'0 0.2
2016-Sep-19 03:33N 49°29' E 000°06'1 0.6
2016-Sep-19 02:34N 49°29' E 000°07'0 0.0
2016-Sep-19 00:33N 49°29' E 000°07'8 1.6
2016-Sep-18 19:33N 49°31' W 000°05'5 1.3
2016-Sep-18 15:33N 49°30' E 000°02'3 2.9
2016-Sep-18 14:33N 49°29' E 000°07'0 0.0
2016-Sep-18 10:33N 49°29' E 000°07'0 0.0
2016-Sep-18 09:33N 49°29' E 000°07'10 1.4
2016-Sep-18 02:34N 49°32' W 000°08'1010.2
2016-Sep-18 01:33N 49°29' E 000°07'0 0.0
2016-Sep-18 00:33N 49°29' E 000°07'0 0.0
2016-Sep-17 22:33N 49°29' E 000°07'0 0.0
2016-Sep-17 21:33N 49°29' E 000°07'8 7.6
2016-Sep-17 20:33N 49°31' W 000°05'8 5.9
2016-Sep-17 19:16N 49°29' E 000°07'0 0.0
2016-Sep-17 13:34N 49°29' E 000°07'3 2.6
2016-Sep-17 12:33N 49°30' E 000°03'3 1.3
2016-Sep-17 10:34N 49°29' E 000°07'1 1.3
2016-Sep-17 09:33N 49°29' E 000°05'1 1.3
2016-Sep-17 08:33N 49°29' E 000°07'0 0.0
2016-Sep-17 07:34N 49°29' E 000°07'4 1.9
2016-Sep-17 05:34N 49°30' E 000°01'4 3.7
2016-Sep-17 04:34N 49°29' E 000°07'0 0.0
2016-Sep-17 00:33N 49°29' E 000°07'0 0.0
2016-Sep-16 17:33N 49°29' E 000°07'0 0.0
2016-Sep-16 15:33N 49°29' E 000°07'2 0.6
2016-Sep-16 12:34N 49°29' E 000°04'6 1.9
2016-Sep-16 09:34N 49°31' W 000°04'7 3.7
2016-Sep-16 07:33N 49°29' E 000°07'0 0.0
2016-Sep-16 03:33N 49°29' E 000°07'1 1.2
2016-Sep-16 02:34N 49°29' E 000°05'1 0.6
2016-Sep-16 00:34N 49°29' E 000°07'0 0.0
2016-Sep-15 22:33N 49°29' E 000°07'0 0.0
2016-Sep-15 21:33N 49°29' E 000°07'1 0.8
2016-Sep-15 20:33N 49°29' E 000°06'0 0.2
2016-Sep-15 18:33N 49°29' E 000°06'0 0.1
2016-Sep-15 12:33N 49°29' E 000°07'0 0.1
2016-Sep-15 11:33N 49°29' E 000°07'0 0.0
2016-Sep-15 04:33N 49°29' E 000°07'  
Track history (hours):
 
Tides and Currents Weather Stations Pressure Air Temp Water Temp Dewpoint Dewpoint Depression Visibility Wind Speed Wind Dir Waves Ship Positions

S C

Last reported at 2016-Sep-25 04:33 UTC. Time now 2016-Sep-26 06:59 UTC.
Position N 49°29' E 000°07'.

; draft 1 m.

Type: Pilot. MMSI: 227001820.

Date/timePositionNaut miles runAvg speedWind from/ knotsBaromVisibWave heightAir tempDewpointWater temp
2016-Sep-25 04:33N 49°29' E 000°07'0 0.0
2016-Sep-25 00:33N 49°29' E 000°07'0 0.0
2016-Sep-24 22:33N 49°29' E 000°07'0 0.0
2016-Sep-24 21:33N 49°29' E 000°07'0 0.0
2016-Sep-24 19:33N 49°29' E 000°07'1 0.8
2016-Sep-24 18:33N 49°29' E 000°05'1 0.5
2016-Sep-24 17:34N 49°29' E 000°06'0 0.4
2016-Sep-24 16:33N 49°29' E 000°07'0 0.0
2016-Sep-24 14:34N 49°29' E 000°07'0 0.0
2016-Sep-24 12:33N 49°29' E 000°07'0 0.0
2016-Sep-24 10:34N 49°29' E 000°07'2 2.1
2016-Sep-24 09:33N 49°30' E 000°04'2 0.3
2016-Sep-24 03:33N 49°29' E 000°07'0 0.0
2016-Sep-24 02:33N 49°29' E 000°07'10 9.9
2016-Sep-24 01:34N 49°32' W 000°08'10 9.9
2016-Sep-24 00:33N 49°29' E 000°07'0 0.0
2016-Sep-23 19:33N 49°29' E 000°07'8 4.1
2016-Sep-23 17:33N 49°31' W 000°05'8 8.1
2016-Sep-23 16:33N 49°29' E 000°07'0 0.0
2016-Sep-23 15:33N 49°29' E 000°07'0 0.1
2016-Sep-23 13:33N 49°29' E 000°06'8 2.0
2016-Sep-23 09:33N 49°31' W 000°05'8 2.8
2016-Sep-23 06:33N 49°29' E 000°07'0 0.0
2016-Sep-23 04:33N 49°29' E 000°07'0 0.0
2016-Sep-23 03:33N 49°29' E 000°07'1 1.1
2016-Sep-23 02:33N 49°29' E 000°05'9 8.9
2016-Sep-23 01:34N 49°32' W 000°08'10 9.9
2016-Sep-23 00:33N 49°29' E 000°07'0 0.0
2016-Sep-22 23:33N 49°29' E 000°07'0 0.0
2016-Sep-22 20:33N 49°29' E 000°07'3 0.3
2016-Sep-22 12:33N 49°30' E 000°03'3 0.3
2016-Sep-22 04:33N 49°29' E 000°07'0 0.3
2016-Sep-22 03:33N 49°29' E 000°06'0 0.1
2016-Sep-22 00:33N 49°29' E 000°07'0 0.0
2016-Sep-21 23:33N 49°29' E 000°07'0 0.0
2016-Sep-21 22:33N 49°29' E 000°07'0 0.0
2016-Sep-21 19:33N 49°29' E 000°07'7 2.5
2016-Sep-21 16:33N 49°31' W 000°04'7 1.1
2016-Sep-21 09:34N 49°29' E 000°07'0 0.0
2016-Sep-21 08:33N 49°29' E 000°07'22 7.3
2016-Sep-21 05:33N 49°45' W 000°16'2211.0
2016-Sep-21 03:34N 49°29' E 000°07'0 0.0
2016-Sep-21 02:33N 49°29' E 000°07'0 0.0
2016-Sep-20 17:34N 49°29' E 000°07'3 0.9
2016-Sep-20 14:33N 49°30' E 000°02'4 4.3
2016-Sep-20 13:33N 49°31' W 000°04'7 2.4
2016-Sep-20 10:33N 49°29' E 000°07'1 0.4
2016-Sep-20 08:34N 49°29' E 000°06'1 0.8
2016-Sep-20 07:33N 49°29' E 000°07'0 0.0
2016-Sep-20 06:33N 49°29' E 000°07'0 0.1
2016-Sep-20 02:33N 49°29' E 000°06'0 0.1
2016-Sep-19 23:33N 49°29' E 000°07'0 0.1
2016-Sep-19 19:34N 49°29' E 000°06'0 0.5
2016-Sep-19 18:34N 49°29' E 000°07'0 0.0
2016-Sep-19 16:33N 49°29' E 000°07'4 1.8
2016-Sep-19 14:33N 49°30' E 000°01'4 3.6
2016-Sep-19 13:33N 49°29' E 000°07'2 2.1
2016-Sep-19 12:34N 49°29' E 000°04'2 2.1
2016-Sep-19 11:34N 49°29' E 000°07'0 0.0
2016-Sep-19 09:33N 49°29' E 000°07'8 4.1
2016-Sep-19 07:33N 49°31' W 000°06'8 8.0
2016-Sep-19 06:33N 49°29' E 000°07'0 0.2
2016-Sep-19 03:33N 49°29' E 000°06'1 0.6
2016-Sep-19 02:34N 49°29' E 000°07'0 0.0
2016-Sep-19 00:33N 49°29' E 000°07'8 1.6
2016-Sep-18 19:33N 49°31' W 000°05'5 1.3
2016-Sep-18 15:33N 49°30' E 000°02'3 2.9
2016-Sep-18 14:33N 49°29' E 000°07'0 0.0
2016-Sep-18 10:33N 49°29' E 000°07'0 0.0
2016-Sep-18 09:33N 49°29' E 000°07'10 1.4
2016-Sep-18 02:34N 49°32' W 000°08'1010.2
2016-Sep-18 01:33N 49°29' E 000°07'0 0.0
2016-Sep-18 00:33N 49°29' E 000°07'0 0.0
2016-Sep-17 22:33N 49°29' E 000°07'0 0.0
2016-Sep-17 21:33N 49°29' E 000°07'8 7.6
2016-Sep-17 20:33N 49°31' W 000°05'8 5.9
2016-Sep-17 19:16N 49°29' E 000°07'0 0.0
2016-Sep-17 13:34N 49°29' E 000°07'3 2.6
2016-Sep-17 12:33N 49°30' E 000°03'3 1.3
2016-Sep-17 10:34N 49°29' E 000°07'1 1.3
2016-Sep-17 09:33N 49°29' E 000°05'1 1.3
2016-Sep-17 08:33N 49°29' E 000°07'0 0.0
2016-Sep-17 07:34N 49°29' E 000°07'4 1.9
2016-Sep-17 05:34N 49°30' E 000°01'4 3.7
2016-Sep-17 04:34N 49°29' E 000°07'0 0.0
2016-Sep-17 00:33N 49°29' E 000°07'0 0.0
2016-Sep-16 17:33N 49°29' E 000°07'0 0.0
2016-Sep-16 15:33N 49°29' E 000°07'2 0.6
2016-Sep-16 12:34N 49°29' E 000°04'6 1.9
2016-Sep-16 09:34N 49°31' W 000°04'7 3.7
2016-Sep-16 07:33N 49°29' E 000°07'0 0.0
2016-Sep-16 03:33N 49°29' E 000°07'1 1.2
2016-Sep-16 02:34N 49°29' E 000°05'1 0.6
2016-Sep-16 00:34N 49°29' E 000°07'0 0.0
2016-Sep-15 22:33N 49°29' E 000°07'0 0.0
2016-Sep-15 21:33N 49°29' E 000°07'1 0.8
2016-Sep-15 20:33N 49°29' E 000°06'0 0.2
2016-Sep-15 18:33N 49°29' E 000°06'0 0.1
2016-Sep-15 12:33N 49°29' E 000°07'0 0.1
2016-Sep-15 11:33N 49°29' E 000°07'0 0.0
2016-Sep-15 04:33N 49°29' E 000°07'  

Dump ship's entire track history